Time;durP1;ratioP1;P1;durP2;ratioP2;P2;SDS_P1;SDS_P2;PMS_P1;PMS_P2;Temp;Humidity;BMP_temperature;BMP_pressure;BME280_temperature;BME280_humidity;BME280_pressure;Samples;Min_cycle;Max_cycle;Signal;HPM_P1;HPM_P2
2022/07/17 00:02:04;;;;;;;5.40;2.10;;;;;;;21.19;40.90;102582.25;5082328;28;20095;-64
2022/07/17 00:04:32;;;;;;;6.18;1.67;;;;;;;21.27;40.85;102595.53;5082932;28;20068;-64
2022/07/17 00:06:59;;;;;;;6.55;1.80;;;;;;;21.25;40.96;102603.16;5091886;28;20052;-64
2022/07/17 00:09:27;;;;;;;3.85;1.65;;;;;;;21.23;40.85;102602.59;5088035;28;20132;-63
2022/07/17 00:11:55;;;;;;;7.50;1.90;;;;;;;21.22;40.91;102592.72;5088303;28;20037;-64
2022/07/17 00:14:23;;;;;;;3.88;1.50;;;;;;;21.20;40.96;102608.53;5096663;28;20474;-64
2022/07/17 00:16:53;;;;;;;5.07;1.63;;;;;;;21.18;40.94;102604.38;5082624;28;20098;-63
2022/07/17 00:19:21;;;;;;;6.05;2.20;;;;;;;21.16;40.88;102601.06;5082335;28;20046;-63
2022/07/17 00:21:49;;;;;;;6.55;1.80;;;;;;;21.15;41.02;102607.63;5085860;28;20088;-64
2022/07/17 00:24:19;;;;;;;3.90;1.83;;;;;;;21.13;40.97;102605.13;5093570;28;20053;-64
2022/07/17 00:26:48;;;;;;;4.80;1.30;;;;;;;21.10;41.02;102609.19;5086481;28;20056;-63
2022/07/17 00:29:17;;;;;;;5.07;1.58;;;;;;;21.09;40.97;102604.81;5084085;28;20067;-63
2022/07/17 00:31:45;;;;;;;7.28;1.80;;;;;;;21.07;41.07;102604.22;5085696;28;20048;-63
2022/07/17 00:34:15;;;;;;;5.45;2.10;;;;;;;21.05;41.17;102609.09;5091668;28;20056;-63
2022/07/17 00:36:43;;;;;;;3.95;1.48;;;;;;;21.04;41.23;102610.19;5094448;28;20048;-63
2022/07/17 00:39:11;;;;;;;4.85;1.50;;;;;;;21.04;41.09;102609.34;5098298;28;20091;-64
2022/07/17 00:41:39;;;;;;;3.85;1.90;;;;;;;21.02;41.18;102611.50;5075831;28;20131;-63
2022/07/17 00:44:09;;;;;;;6.47;1.70;;;;;;;20.99;41.34;102606.53;5098665;28;20131;-63
2022/07/17 00:46:36;;;;;;;4.95;1.55;;;;;;;20.99;41.47;102603.81;5078304;28;20040;-64
2022/07/17 00:49:06;;;;;;;4.50;1.55;;;;;;;20.98;41.20;102600.25;5085296;28;20110;-64
2022/07/17 00:51:35;;;;;;;5.88;1.67;;;;;;;20.97;41.49;102605.97;5096859;28;20128;-63
2022/07/17 00:54:04;;;;;;;4.30;1.52;;;;;;;20.95;41.49;102606.22;5082857;28;20075;-63
2022/07/17 00:56:38;;;;;;;5.93;2.20;;;;;;;20.95;41.34;102605.38;5092984;28;20054;-64
2022/07/17 00:59:06;;;;;;;2.92;1.33;;;;;;;20.93;41.40;102605.63;5084172;28;20052;-63
2022/07/17 01:01:34;;;;;;;3.75;1.73;;;;;;;20.92;41.45;102601.25;5105199;28;20052;-63
2022/07/17 01:04:02;;;;;;;4.88;1.70;;;;;;;20.91;41.42;102601.50;5084939;28;20108;-63
2022/07/17 01:06:30;;;;;;;6.70;1.48;;;;;;;20.89;41.64;102584.50;5089813;28;20108;-63
2022/07/17 01:09:00;;;;;;;6.85;2.42;;;;;;;20.86;41.49;102594.03;5081730;28;20139;-63
2022/07/17 01:11:28;;;;;;;6.05;1.80;;;;;;;20.84;41.73;102593.44;5093527;28;20055;-63
2022/07/17 01:13:57;;;;;;;4.07;1.65;;;;;;;20.83;41.63;102590.97;5088477;28;20064;-63
2022/07/17 01:16:25;;;;;;;5.07;1.58;;;;;;;20.81;41.77;102588.47;5092905;28;20074;-63
2022/07/17 01:18:54;;;;;;;3.13;1.40;;;;;;;20.80;41.78;102590.38;5088919;28;20068;-64
2022/07/17 01:21:23;;;;;;;5.55;1.48;;;;;;;20.78;41.76;102587.09;5083300;28;20080;-64
2022/07/17 01:23:50;;;;;;;4.88;1.40;;;;;;;20.77;41.82;102590.09;5075461;28;20056;-64
2022/07/17 01:26:18;;;;;;;3.05;1.52;;;;;;;20.71;41.85;102585.63;5099193;28;20072;-64
2022/07/17 01:28:46;;;;;;;4.68;1.70;;;;;;;20.73;41.84;102594.38;5084831;28;20072;-64
2022/07/17 01:31:14;;;;;;;3.45;1.52;;;;;;;20.72;41.89;102593.56;5076295;28;20060;-64
2022/07/17 01:33:41;;;;;;;5.50;1.50;;;;;;;20.69;41.96;102591.31;5087243;28;20056;-64
2022/07/17 01:36:09;;;;;;;3.78;1.70;;;;;;;20.67;41.93;102590.75;5084709;28;20553;-64
2022/07/17 01:38:38;;;;;;;3.13;1.30;;;;;;;20.66;41.88;102585.53;5089688;28;20047;-64
2022/07/17 01:41:06;;;;;;;4.28;1.55;;;;;;;20.64;41.92;102584.94;5092438;28;20048;-64
2022/07/17 01:43:34;;;;;;;5.13;1.75;;;;;;;20.62;42.11;102581.63;5104006;28;20068;-64
2022/07/17 01:46:01;;;;;;;7.38;1.40;;;;;;;20.61;42.08;102582.69;5087549;28;20462;-64
2022/07/17 01:48:30;;;;;;;2.80;1.35;;;;;;;20.59;41.94;102580.22;5101316;28;20078;-64
2022/07/17 01:50:58;;;;;;;4.10;1.63;;;;;;;20.56;42.01;102577.97;5095010;28;20182;-64
2022/07/17 01:53:26;;;;;;;3.72;1.30;;;;;;;20.56;42.06;102585.34;5095688;28;20119;-64
2022/07/17 01:55:55;;;;;;;6.93;1.98;;;;;;;20.54;42.19;102592.97;5087192;28;20059;-64
2022/07/17 01:58:23;;;;;;;4.05;1.35;;;;;;;20.53;42.21;102583.09;5103661;28;20075;-64
2022/07/17 02:00:51;;;;;;;4.28;1.92;;;;;;;20.51;42.32;102594.28;5081214;28;20040;-64
2022/07/17 02:03:20;;;;;;;4.88;1.58;;;;;;;20.49;42.16;102599.16;5085067;28;20416;-64
2022/07/17 02:05:48;;;;;;;7.38;1.63;;;;;;;20.48;42.37;102602.97;5094695;28;20083;-64
2022/07/17 02:08:15;;;;;;;5.57;2.22;;;;;;;20.46;42.32;102608.66;5082578;28;20055;-64
2022/07/17 02:10:45;;;;;;;4.53;1.50;;;;;;;20.40;42.37;102598.72;5086972;28;20044;-64
2022/07/17 02:13:14;;;;;;;4.28;1.70;;;;;;;20.42;42.39;102607.50;5080133;28;20394;-64
2022/07/17 02:15:42;;;;;;;4.32;1.70;;;;;;;20.41;42.36;102607.75;5099024;28;20052;-64
2022/07/17 02:18:09;;;;;;;3.80;1.50;;;;;;;20.39;42.44;102605.25;5086253;28;20134;-65
2022/07/17 02:20:37;;;;;;;4.75;1.52;;;;;;;20.38;42.39;102606.34;5104025;28;20048;-64
2022/07/17 02:23:05;;;;;;;3.95;1.67;;;;;;;20.37;42.33;102604.66;5080846;28;20079;-63
2022/07/17 02:25:33;;;;;;;3.83;1.70;;;;;;;20.35;42.41;102603.22;5083580;28;20048;-63
2022/07/17 02:28:00;;;;;;;7.28;1.73;;;;;;;20.34;42.54;102599.69;5098433;28;20052;-64
2022/07/17 02:30:29;;;;;;;3.92;1.60;;;;;;;20.32;42.49;102596.34;5083555;28;20051;-64
2022/07/17 02:32:57;;;;;;;7.32;2.05;;;;;;;20.31;42.38;102602.88;5076554;28;20063;-64
2022/07/17 02:35:25;;;;;;;7.47;1.83;;;;;;;20.30;42.51;102595.78;5085200;28;20083;-64
2022/07/17 02:37:53;;;;;;;3.10;1.55;;;;;;;20.29;42.60;102602.31;5086256;28;20074;-65
2022/07/17 02:40:20;;;;;;;4.60;1.75;;;;;;;20.29;42.75;102596.03;5078297;28;20707;-64
2022/07/17 02:42:48;;;;;;;3.83;1.88;;;;;;;20.26;42.62;102597.34;5082152;28;20044;-64
2022/07/17 02:45:18;;;;;;;4.63;1.58;;;;;;;20.22;42.64;102603.53;5082332;28;20073;-64
2022/07/17 02:47:47;;;;;;;6.90;2.28;;;;;;;20.24;42.65;102596.75;5100840;28;20365;-64
2022/07/17 02:50:15;;;;;;;4.22;1.67;;;;;;;20.21;42.64;102599.97;5084003;28;20048;-64
2022/07/17 02:52:43;;;;;;;4.63;2.03;;;;;;;20.17;42.69;102587.88;5095083;28;20044;-64
2022/07/17 02:55:11;;;;;;;2.88;1.40;;;;;;;20.17;42.56;102579.69;5081682;28;20052;-64
2022/07/17 02:57:39;;;;;;;3.80;1.88;;;;;;;20.20;42.53;102589.28;5085881;28;20069;-65
2022/07/17 03:00:11;;;;;;;4.78;1.85;;;;;;;20.13;42.77;102590.25;5079234;28;20083;-64
2022/07/17 03:02:39;;;;;;;6.80;1.85;;;;;;;20.18;42.92;102591.44;5089468;28;20044;-64
2022/07/17 03:05:09;;;;;;;4.65;1.48;;;;;;;20.15;42.82;102593.56;5075324;28;20049;-64
2022/07/17 03:07:38;;;;;;;4.20;1.65;;;;;;;20.15;42.70;102588.13;5085041;28;20066;-64
2022/07/17 03:10:06;;;;;;;7.18;1.80;;;;;;;20.13;42.86;102595.72;5080507;28;20114;-64
2022/07/17 03:12:35;;;;;;;6.70;2.85;;;;;;;20.07;42.79;102593.97;5091823;28;20040;-64
2022/07/17 03:15:03;;;;;;;4.40;1.90;;;;;;;20.10;42.95;102595.38;5081641;28;20056;-64
2022/07/17 03:17:31;;;;;;;6.10;1.95;;;;;;;20.08;42.99;102601.09;5079862;28;20058;-64
2022/07/17 03:19:59;;;;;;;4.80;1.50;;;;;;;20.07;42.90;102601.31;5078267;28;20079;-64
2022/07/17 03:22:28;;;;;;;5.15;2.17;;;;;;;20.05;42.92;102609.75;5074809;28;20102;-64
2022/07/17 03:24:56;;;;;;;6.30;1.73;;;;;;;20.02;43.12;102612.13;5080410;28;20045;-64
2022/07/17 03:27:24;;;;;;;4.68;1.80;;;;;;;20.00;43.15;102604.19;5090980;28;20080;-64
2022/07/17 03:29:53;;;;;;;6.10;1.95;;;;;;;20.00;43.29;102612.38;5103202;28;20052;-64
2022/07/17 03:32:22;;;;;;;4.88;1.95;;;;;;;19.99;43.04;102607.16;5079737;28;20095;-64
2022/07/17 03:34:49;;;;;;;3.78;1.55;;;;;;;19.96;43.24;102604.91;5087727;28;20148;-63
2022/07/17 03:37:17;;;;;;;8.73;2.10;;;;;;;19.95;43.26;102606.81;5092030;28;20122;-64
2022/07/17 03:39:46;;;;;;;3.05;1.52;;;;;;;19.95;43.14;102595.06;5078225;28;20053;-64
2022/07/17 03:42:14;;;;;;;7.30;2.20;;;;;;;19.93;43.25;102598.03;5074257;28;20082;-64
2022/07/17 03:48:36;;;;;;;4.03;1.90;;;;;;;19.89;43.33;102602.31;5079522;28;20059;-63
2022/07/17 03:51:23;;;;;;;4.90;2.38;;;;;;;19.87;43.51;102599.00;5007909;28;20064;-63
2022/07/17 03:53:50;;;;;;;5.00;2.22;;;;;;;19.86;43.47;102601.97;5023677;28;20100;-63
2022/07/17 03:56:22;;;;;;;4.05;1.80;;;;;;;19.84;43.46;102599.50;5020944;28;20060;-62
2022/07/17 03:58:50;;;;;;;7.07;1.90;;;;;;;19.82;43.54;102598.91;5021945;28;20046;-63
2022/07/17 04:01:17;;;;;;;4.32;1.75;;;;;;;19.80;43.38;102601.88;5017467;28;20072;-63
2022/07/17 04:03:45;;;;;;;4.38;2.05;;;;;;;19.78;43.68;102605.91;5020998;28;20053;-63
2022/07/17 04:06:13;;;;;;;3.92;1.75;;;;;;;19.77;43.44;102610.53;5009046;28;20086;-63
2022/07/17 04:08:41;;;;;;;5.78;2.08;;;;;;;19.76;43.71;102606.16;5034237;28;20927;-63
2022/07/17 04:11:09;;;;;;;4.88;1.88;;;;;;;19.74;43.58;102611.03;5080106;28;20049;-63
2022/07/17 04:13:39;;;;;;;5.43;1.90;;;;;;;19.74;43.67;102621.09;5094926;28;20044;-63
2022/07/17 04:16:07;;;;;;;4.07;1.48;;;;;;;19.72;43.82;102615.88;5094192;28;20064;-63
2022/07/17 04:18:36;;;;;;;5.05;1.88;;;;;;;19.72;43.71;102615.06;5091683;28;20124;-62
2022/07/17 04:21:06;;;;;;;3.95;1.70;;;;;;;19.69;43.73;102615.53;5087691;28;20053;-63
2022/07/17 04:23:34;;;;;;;5.22;2.08;;;;;;;19.67;44.07;102621.22;5082660;28;20048;-63
2022/07/17 04:26:02;;;;;;;5.93;1.80;;;;;;;19.67;43.76;102623.13;5099704;28;20079;-63
2022/07/17 04:28:37;;;;;;;4.78;1.90;;;;;;;19.65;43.98;102628.81;5089977;28;20124;-62
2022/07/17 04:31:06;;;;;;;4.28;1.83;;;;;;;19.65;43.70;102636.19;5084648;28;20063;-64
2022/07/17 04:33:34;;;;;;;6.45;2.13;;;;;;;19.64;43.95;102629.88;5099576;28;20146;-63
2022/07/17 04:36:02;;;;;;;2.92;1.70;;;;;;;19.63;44.05;102624.69;5080164;28;20083;-63
2022/07/17 04:38:30;;;;;;;4.72;1.83;;;;;;;19.60;43.81;102625.97;5083988;28;20107;-63
2022/07/17 04:40:58;;;;;;;4.85;2.13;;;;;;;19.61;44.05;102624.09;5083383;28;20049;-63
2022/07/17 04:43:26;;;;;;;5.82;2.00;;;;;;;19.60;44.18;102628.72;5082934;28;20394;-63
2022/07/17 04:45:53;;;;;;;5.93;2.15;;;;;;;19.59;44.02;102626.22;5070183;28;20110;-63
2022/07/17 04:48:22;;;;;;;4.45;1.85;;;;;;;19.56;44.27;102623.97;5094483;28;20142;-63
2022/07/17 04:50:50;;;;;;;8.68;1.73;;;;;;;19.56;44.31;102627.53;5090073;28;20049;-63
2022/07/17 04:53:18;;;;;;;4.47;2.17;;;;;;;19.57;44.22;102617.44;5089151;28;20048;-63
2022/07/17 04:55:51;;;;;;;3.80;2.10;;;;;;;19.56;44.10;102623.97;5083495;28;20052;-64
2022/07/17 04:58:19;;;;;;;6.75;2.10;;;;;;;19.54;44.45;102629.66;5084358;28;20044;-63
2022/07/17 05:00:47;;;;;;;8.48;2.53;;;;;;;19.53;44.38;102632.63;5083138;28;20052;-65
2022/07/17 05:03:15;;;;;;;7.70;2.00;;;;;;;19.52;44.28;102633.69;5085121;28;20048;-64
2022/07/17 05:05:44;;;;;;;6.15;1.75;;;;;;;19.51;44.31;102641.03;5093966;28;20063;-64
2022/07/17 05:08:12;;;;;;;7.80;2.30;;;;;;;19.49;44.28;102643.97;5084344;28;20053;-64
2022/07/17 05:10:40;;;;;;;5.10;2.13;;;;;;;19.49;44.52;102646.72;5092147;28;20059;-64
2022/07/17 05:13:07;;;;;;;8.85;1.92;;;;;;;19.48;44.38;102650.50;5069184;28;20051;-63
2022/07/17 05:15:35;;;;;;;6.45;2.13;;;;;;;19.49;44.23;102648.59;5078381;28;20060;-64
2022/07/17 05:18:07;;;;;;;5.00;2.13;;;;;;;19.49;44.08;102646.72;5086572;28;20048;-63
2022/07/17 05:20:36;;;;;;;3.60;1.92;;;;;;;19.48;44.24;102646.94;5087307;28;20096;-64
2022/07/17 05:23:05;;;;;;;8.77;2.05;;;;;;;19.48;44.30;102642.31;5083823;28;20095;-63
2022/07/17 05:25:33;;;;;;;6.18;2.13;;;;;;;19.48;44.08;102639.59;5084795;28;20128;-64
2022/07/17 05:28:01;;;;;;;4.75;2.22;;;;;;;19.44;44.10;102630.22;5085971;28;20079;-63
2022/07/17 05:30:29;;;;;;;5.50;2.25;;;;;;;19.48;44.08;102627.84;5078782;28;20080;-63
2022/07/17 05:32:58;;;;;;;5.03;2.05;;;;;;;19.48;44.05;102627.84;5082961;28;20348;-63
2022/07/17 05:35:26;;;;;;;6.50;1.98;;;;;;;19.50;44.12;102632.00;5093491;28;20055;-63
2022/07/17 05:37:54;;;;;;;3.78;1.67;;;;;;;19.52;44.04;102628.25;5083482;28;20056;-64
2022/07/17 05:40:25;;;;;;;7.40;2.08;;;;;;;19.54;44.11;102639.75;5072026;28;20064;-63
2022/07/17 05:42:53;;;;;;;6.93;1.77;;;;;;;19.55;44.08;102641.41;5085975;28;20103;-63
2022/07/17 05:45:21;;;;;;;5.05;2.10;;;;;;;19.59;44.03;102645.31;5104023;28;20083;-63
2022/07/17 05:47:48;;;;;;;5.32;2.10;;;;;;;19.60;44.01;102636.06;5081335;28;20044;-63
2022/07/17 05:50:16;;;;;;;6.10;1.90;;;;;;;19.62;44.01;102637.50;5098564;28;20517;-63
2022/07/17 05:52:44;;;;;;;3.97;1.52;;;;;;;19.63;44.06;102638.31;5091001;28;20044;-63
2022/07/17 05:55:12;;;;;;;5.35;1.90;;;;;;;19.65;44.18;102626.09;5098061;28;20055;-64
2022/07/17 05:57:41;;;;;;;4.13;2.05;;;;;;;19.66;43.98;102622.31;5076226;28;20097;-63
2022/07/17 06:00:10;;;;;;;5.43;1.90;;;;;;;19.68;44.19;102631.06;5080487;28;20067;-63
2022/07/17 06:02:38;;;;;;;5.20;2.15;;;;;;;19.71;44.19;102636.06;5095861;28;20082;-63
2022/07/17 06:05:06;;;;;;;3.97;1.60;;;;;;;19.72;44.08;102634.16;5094093;28;20048;-63
2022/07/17 06:07:34;;;;;;;4.03;2.28;;;;;;;19.75;44.17;102633.69;5091887;28;20056;-63
2022/07/17 06:10:02;;;;;;;4.95;2.08;;;;;;;19.77;44.23;102632.38;5074337;28;20084;-64
2022/07/17 06:12:29;;;;;;;8.52;2.10;;;;;;;19.80;44.19;102634.63;5089077;28;20044;-63
2022/07/17 06:14:58;;;;;;;4.68;2.20;;;;;;;19.81;44.26;102625.34;5097034;28;20497;-64
2022/07/17 06:17:28;;;;;;;2.28;1.45;;;;;;;19.84;44.27;102626.78;5078242;28;20106;-63
2022/07/17 06:19:56;;;;;;;6.20;1.73;;;;;;;19.87;44.11;102612.66;5094555;28;20070;-63
2022/07/17 06:22:23;;;;;;;4.63;1.77;;;;;;;19.89;44.22;102617.88;5084173;28;20048;-64
2022/07/17 06:24:51;;;;;;;4.65;1.65;;;;;;;19.92;44.15;102617.38;5093613;28;20083;-64
2022/07/17 06:27:19;;;;;;;2.53;1.58;;;;;;;19.80;44.21;102598.31;5085723;28;20120;-63
2022/07/17 06:29:47;;;;;;;3.90;1.80;;;;;;;19.96;44.12;102615.84;5077820;28;20278;-63
2022/07/17 06:32:24;;;;;;;5.18;1.58;;;;;;;19.97;44.04;102610.13;5082158;28;20292;-63
2022/07/17 06:34:52;;;;;;;4.65;1.85;;;;;;;20.02;43.94;102617.59;5096509;28;20067;-63
2022/07/17 06:37:20;;;;;;;3.17;1.83;;;;;;;20.06;44.09;102622.34;5087175;28;20091;-63
2022/07/17 06:39:47;;;;;;;6.05;2.17;;;;;;;20.07;43.96;102621.25;5088971;28;20075;-63
2022/07/17 06:42:15;;;;;;;5.72;1.98;;;;;;;20.10;43.92;102631.69;5090712;28;20102;-64
2022/07/17 06:44:43;;;;;;;4.13;1.75;;;;;;;20.13;44.05;102644.03;5083680;28;20394;-63
2022/07/17 06:47:11;;;;;;;6.68;1.85;;;;;;;20.14;44.06;102640.22;5086578;28;20071;-63
2022/07/17 06:49:40;;;;;;;6.72;1.77;;;;;;;20.17;44.04;102642.47;5086086;28;20148;-64
2022/07/17 06:52:08;;;;;;;3.70;1.73;;;;;;;20.19;44.06;102650.44;5084960;28;20076;-63
2022/07/17 06:54:36;;;;;;;4.45;1.80;;;;;;;20.20;44.06;102652.91;5086551;28;20071;-63
2022/07/17 06:57:03;;;;;;;3.72;2.05;;;;;;;20.21;43.94;102656.47;5096195;28;20105;-63
2022/07/17 06:59:31;;;;;;;5.07;2.58;;;;;;;20.24;43.93;102658.72;5082861;28;20079;-64
2022/07/17 07:01:59;;;;;;;4.75;1.65;;;;;;;20.24;43.96;102653.25;5083940;28;20048;-63
2022/07/17 07:04:27;;;;;;;2.55;1.92;;;;;;;20.27;43.96;102660.97;5082302;28;20490;-64
2022/07/17 07:06:56;;;;;;;5.82;2.00;;;;;;;20.29;43.85;102664.28;5101484;28;20079;-64
2022/07/17 07:09:24;;;;;;;4.95;2.13;;;;;;;20.30;43.88;102657.75;5087205;28;20101;-63
2022/07/17 07:11:51;;;;;;;4.85;1.90;;;;;;;20.30;43.84;102661.31;5078492;28;20079;-65
2022/07/17 07:14:19;;;;;;;4.32;1.95;;;;;;;20.31;43.97;102656.69;5073994;28;20045;-64
2022/07/17 07:16:47;;;;;;;3.97;1.55;;;;;;;20.30;43.71;102661.31;5076810;28;20539;-64
2022/07/17 07:19:15;;;;;;;4.47;1.95;;;;;;;20.32;43.70;102663.81;5086090;28;20041;-64
2022/07/17 07:21:42;;;;;;;4.15;1.95;;;;;;;20.34;43.85;102672.56;5090923;28;20044;-64
2022/07/17 07:24:12;;;;;;;3.05;1.52;;;;;;;20.34;44.05;102672.56;5096767;28;20091;-64
2022/07/17 07:26:39;;;;;;;2.67;1.70;;;;;;;20.35;43.82;102680.53;5075608;28;20068;-64
2022/07/17 07:29:07;;;;;;;3.38;1.60;;;;;;;20.34;44.05;102675.31;5088015;28;20054;-63
2022/07/17 07:31:43;;;;;;;3.85;1.65;;;;;;;20.37;44.09;102675.66;5100686;28;20048;-63
2022/07/17 07:34:11;;;;;;;5.30;1.70;;;;;;;20.35;44.00;102666.88;5085951;28;20677;-63
2022/07/17 07:36:39;;;;;;;4.43;2.10;;;;;;;20.37;43.97;102675.66;5085893;28;20182;-64
2022/07/17 07:39:06;;;;;;;5.10;2.08;;;;;;;20.39;44.02;102669.97;5085930;28;20063;-63
2022/07/17 07:41:36;;;;;;;3.75;1.58;;;;;;;20.39;43.84;102659.88;5056848;28;20049;-64
2022/07/17 07:44:04;;;;;;;5.82;1.52;;;;;;;20.39;43.91;102657.16;5058578;28;20045;-64
2022/07/17 07:46:31;;;;;;;3.78;1.92;;;;;;;20.40;44.09;102653.34;5062029;28;20053;-63
2022/07/17 07:48:59;;;;;;;4.05;1.40;;;;;;;20.40;43.96;102661.53;5086101;28;20067;-63
2022/07/17 07:51:27;;;;;;;3.42;1.60;;;;;;;20.41;44.02;102665.94;5059067;28;20084;-63
2022/07/17 07:54:15;;;;;;;6.78;1.85;;;;;;;20.42;44.17;102664.03;5080042;28;20131;-64
2022/07/17 07:56:44;;;;;;;5.90;1.85;;;;;;;20.43;44.01;102669.25;5064436;28;20048;-64
2022/07/17 07:59:12;;;;;;;4.78;2.10;;;;;;;20.44;44.23;102672.81;5066974;28;20080;-63
2022/07/17 08:01:39;;;;;;;6.88;1.63;;;;;;;20.45;44.20;102679.94;5069285;28;20046;-64
2022/07/17 08:04:07;;;;;;;5.00;1.70;;;;;;;20.43;44.26;102666.50;5066044;28;20056;-64
2022/07/17 08:06:35;;;;;;;3.25;1.60;;;;;;;20.46;44.34;102666.03;5061635;28;20056;-64
2022/07/17 08:09:03;;;;;;;3.85;1.55;;;;;;;20.46;44.14;102673.41;5080225;28;20052;-63
2022/07/17 08:11:30;;;;;;;4.05;1.80;;;;;;;20.47;44.08;102669.59;5064412;28;20076;-63
2022/07/17 08:14:00;;;;;;;3.33;1.67;;;;;;;20.47;44.21;102672.31;5064865;28;20089;-64
2022/07/17 08:16:36;;;;;;;3.20;1.60;;;;;;;20.49;44.15;102681.09;5057537;28;20052;-63
2022/07/17 08:19:04;;;;;;;5.97;1.70;;;;;;;20.50;44.26;102680.03;5070159;28;20102;-63
2022/07/17 08:21:31;;;;;;;4.53;1.42;;;;;;;20.51;44.21;102672.66;5067071;28;20045;-63
2022/07/17 08:23:59;;;;;;;4.97;1.67;;;;;;;20.53;44.08;102685.00;5070785;28;20060;-64
2022/07/17 08:26:27;;;;;;;2.63;1.70;;;;;;;20.54;43.99;102680.38;5076895;28;20419;-63
2022/07/17 08:28:56;;;;;;;4.32;1.65;;;;;;;20.52;43.98;102671.59;5061486;28;20124;-63
2022/07/17 08:31:25;;;;;;;6.05;1.65;;;;;;;20.56;43.85;102670.88;5066163;28;20057;-64
2022/07/17 08:33:53;;;;;;;3.40;1.50;;;;;;;20.56;43.92;102670.03;5080332;28;20041;-63
2022/07/17 08:36:21;;;;;;;3.90;1.48;;;;;;;20.59;43.90;102678.56;5056863;28;20048;-64
2022/07/17 08:38:49;;;;;;;5.75;1.63;;;;;;;20.60;44.00;102671.19;5061230;28;20502;-63
2022/07/17 08:41:21;;;;;;;4.60;1.00;;;;;;;20.61;43.50;102678.31;5088331;28;20354;-64
2022/07/17 08:43:50;;;;;;;4.28;1.63;;;;;;;20.59;43.16;102675.84;5090929;28;20079;-64
2022/07/17 08:46:19;;;;;;;3.05;1.50;;;;;;;20.59;43.46;102656.72;5097403;28;20048;-63
2022/07/17 08:48:53;;;;;;;3.15;1.27;;;;;;;20.66;43.50;102672.97;5106037;28;20048;-63
2022/07/17 08:51:20;;;;;;;5.22;1.48;;;;;;;20.67;43.59;102666.41;5093215;28;20052;-64
2022/07/17 08:53:48;;;;;;;2.75;1.45;;;;;;;20.71;43.43;102670.31;5089332;28;20044;-63
2022/07/17 08:56:16;;;;;;;5.85;1.45;;;;;;;20.72;43.59;102671.97;5089089;28;21505;-63
2022/07/17 08:58:43;;;;;;;3.90;1.50;;;;;;;20.74;43.64;102670.66;5084415;28;20052;-64
2022/07/17 09:01:11;;;;;;;3.58;1.80;;;;;;;20.77;43.61;102663.88;5082254;28;20540;-63
2022/07/17 09:03:42;;;;;;;2.78;1.40;;;;;;;20.78;43.51;102668.25;5094029;28;20052;-64
2022/07/17 09:06:20;;;;;;;3.83;1.20;;;;;;;20.80;43.56;102666.13;5095089;28;20060;-64
2022/07/17 09:08:48;;;;;;;5.03;1.67;;;;;;;20.81;43.59;102667.75;5083046;28;20044;-64
2022/07/17 09:11:16;;;;;;;4.32;2.08;;;;;;;20.81;43.41;102662.28;5101947;28;20143;-64
2022/07/17 09:13:46;;;;;;;3.58;1.30;;;;;;;20.82;43.38;102663.94;5072397;28;20541;-64
2022/07/17 09:16:14;;;;;;;4.50;1.58;;;;;;;20.83;43.59;102673.78;5084591;28;20519;-63
2022/07/17 09:18:44;;;;;;;5.25;1.60;;;;;;;20.85;43.43;102666.16;5072643;28;20044;-63
2022/07/17 09:21:18;;;;;;;3.40;1.65;;;;;;;20.88;43.34;102667.59;5098072;28;20048;-63
2022/07/17 09:23:58;;;;;;;2.40;1.13;;;;;;;20.89;43.46;102664.59;5099259;28;20044;-63
2022/07/17 09:26:26;;;;;;;4.40;1.20;;;;;;;20.91;43.55;102659.72;5090646;28;20111;-63
2022/07/17 09:28:54;;;;;;;4.38;1.50;;;;;;;20.94;43.54;102659.22;5083489;28;20044;-63
2022/07/17 09:31:26;;;;;;;4.25;1.55;;;;;;;20.98;43.41;102654.09;5102600;28;20052;-63
2022/07/17 09:33:55;;;;;;;3.53;1.27;;;;;;;20.99;43.30;102663.94;5086930;28;20076;-64
2022/07/17 09:36:23;;;;;;;1.98;1.17;;;;;;;21.01;43.28;102661.78;5095985;28;20037;-64
2022/07/17 09:38:55;;;;;;;4.50;1.90;;;;;;;21.01;43.30;102668.09;5082457;28;20037;-63
2022/07/17 09:41:24;;;;;;;2.90;1.40;;;;;;;21.02;43.19;102661.56;5082668;28;20119;-63
2022/07/17 09:43:57;;;;;;;3.85;1.30;;;;;;;20.97;43.11;102646.97;5084366;28;20429;-63
2022/07/17 09:46:28;;;;;;;3.45;1.30;;;;;;;21.08;43.12;102662.47;5085437;28;20055;-63
2022/07/17 09:48:58;;;;;;;5.47;1.90;;;;;;;21.10;42.89;102669.34;5079931;28;20049;-64
2022/07/17 09:51:28;;;;;;;2.90;1.80;;;;;;;21.15;42.82;102673.25;5091194;28;20048;-63
2022/07/17 09:54:00;;;;;;;4.10;1.60;;;;;;;21.17;42.83;102660.16;5078477;28;20051;-63
2022/07/17 09:56:31;;;;;;;7.03;1.30;;;;;;;21.19;42.96;102656.09;5085722;28;20413;-63
2022/07/17 09:59:03;;;;;;;3.50;1.35;;;;;;;21.21;42.91;102653.94;5094592;28;20055;-63
2022/07/17 10:01:31;;;;;;;3.67;1.10;;;;;;;21.25;42.89;102655.13;5085288;28;20044;-63
2022/07/17 10:04:00;;;;;;;5.22;1.58;;;;;;;21.29;42.93;102648.06;5097176;28;20059;-63
2022/07/17 10:06:29;;;;;;;5.43;1.70;;;;;;;21.34;42.91;102655.53;5086626;28;20078;-63
2022/07/17 10:08:59;;;;;;;5.05;1.40;;;;;;;21.32;42.90;102653.03;5094429;28;20048;-63
2022/07/17 10:11:30;;;;;;;6.75;1.73;;;;;;;21.40;42.94;102657.28;5086194;28;20074;-64
2022/07/17 10:14:05;;;;;;;4.57;1.48;;;;;;;21.41;42.91;102659.75;5074616;28;20053;-63
2022/07/17 10:16:36;;;;;;;2.88;1.20;;;;;;;21.46;42.76;102658.16;5080106;28;20052;-64
2022/07/17 10:19:15;;;;;;;8.02;1.70;;;;;;;21.48;42.58;102664.22;5095949;28;20109;-63
2022/07/17 10:21:54;;;;;;;3.22;1.27;;;;;;;21.49;42.39;102661.22;5104387;28;20113;-63
2022/07/17 10:24:25;;;;;;;9.07;1.50;;;;;;;21.51;42.41;102647.31;5098342;28;20037;-63
2022/07/17 10:26:53;;;;;;;4.75;1.98;;;;;;;21.55;42.20;102653.94;5086742;28;20044;-64
2022/07/17 10:29:32;;;;;;;3.75;1.23;;;;;;;21.57;42.31;102660.81;5097358;28;20143;-64
2022/07/17 10:32:02;;;;;;;4.90;1.50;;;;;;;21.59;42.06;102655.09;5078783;28;20048;-64
2022/07/17 10:34:41;;;;;;;4.50;1.73;;;;;;;21.61;41.77;102651.00;5102801;28;20051;-64
2022/07/17 10:37:20;;;;;;;2.90;1.20;;;;;;;21.63;41.27;102648.03;5089540;28;20048;-64
2022/07/17 10:40:06;;;;;;;3.05;1.35;;;;;;;21.70;41.30;102646.75;5083365;28;20487;-64
2022/07/17 10:42:48;;;;;;;6.05;1.70;;;;;;;21.76;41.54;102650.41;5101226;28;20044;-64
2022/07/17 10:45:18;;;;;;;5.82;1.20;;;;;;;21.82;41.59;102649.38;5099849;28;20052;-64
2022/07/17 10:47:48;;;;;;;4.57;1.33;;;;;;;21.87;41.53;102651.38;5096258;28;20068;-64
2022/07/17 10:50:18;;;;;;;3.15;1.13;;;;;;;21.92;41.53;102645.97;5097133;28;20083;-64
2022/07/17 10:52:57;;;;;;;4.65;1.48;;;;;;;21.96;41.59;102647.94;5095466;28;20117;-64
2022/07/17 10:55:26;;;;;;;2.05;1.13;;;;;;;22.05;41.47;102642.88;5072032;28;20075;-64
2022/07/17 10:57:55;;;;;;;3.50;1.52;;;;;;;22.15;41.43;102651.22;5085996;28;20087;-64
2022/07/17 11:00:23;;;;;;;2.95;1.40;;;;;;;22.22;41.30;102653.75;5088109;28;20052;-64
2022/07/17 11:02:51;;;;;;;5.10;1.55;;;;;;;22.23;41.11;102648.03;5095840;28;20048;-64
2022/07/17 11:05:20;;;;;;;8.60;2.20;;;;;;;22.23;41.28;102639.81;5097761;28;20095;-64
2022/07/17 11:07:57;;;;;;;3.78;1.95;;;;;;;22.25;41.31;102643.13;5094360;28;20161;-64
2022/07/17 11:10:29;;;;;;;2.90;1.35;;;;;;;22.17;40.86;102623.56;5096613;28;20045;-64
2022/07/17 11:13:09;;;;;;;4.10;1.17;;;;;;;22.43;40.89;102652.06;5091263;28;20040;-64
2022/07/17 11:15:42;;;;;;;2.35;1.30;;;;;;;22.53;40.87;102654.94;5094731;28;20416;-64
2022/07/17 11:18:12;;;;;;;3.85;1.30;;;;;;;22.58;40.94;102642.06;5092206;28;20502;-64
2022/07/17 11:20:51;;;;;;;4.28;1.30;;;;;;;22.61;40.64;102643.47;5087595;28;20044;-64
2022/07/17 11:23:19;;;;;;;4.82;1.83;;;;;;;22.69;40.72;102637.50;5100306;28;20052;-64
2022/07/17 11:26:00;;;;;;;5.97;1.10;;;;;;;22.73;40.60;102636.75;5080669;28;20068;-64
2022/07/17 11:28:33;;;;;;;2.20;1.20;;;;;;;22.78;40.19;102635.97;5083297;28;20053;-64
2022/07/17 11:31:03;;;;;;;4.63;1.40;;;;;;;22.81;40.13;102629.97;5079425;28;20048;-64
2022/07/17 11:33:31;;;;;;;4.40;1.55;;;;;;;22.92;39.87;102630.91;5079052;28;20119;-64
2022/07/17 11:35:59;;;;;;;6.97;1.70;;;;;;;23.04;40.09;102635.13;5101116;28;20130;-64
2022/07/17 11:38:28;;;;;;;4.30;1.08;;;;;;;23.14;39.75;102631.63;5087700;28;20059;-64